De Lier, Netherlands
Current Conditions -  °F | °C
As of 12:55 PM on Sunday 25 Jan 2015 (Local Time) from EHRD Reporting Station
Clear Clear  
Wind Chill: 37°   Ceiling: Unl
Heat Index: 43°   Visibility: 6mi
Dew Point: 39°   Wind: 9mph
Humidity: 87%   Direction: 240°WSW
Pressure: 30.36"   Gusts: NA
Location:  51.98°N, 4.25°E
Report Text: EHRD 251155Z AUTO 24008KT 9999 NSC 06/04 Q1028 NOSIG
Loading
Personal Weather Stations






























Interactive Weather Map New forecast layout! Learn more

10-Day Weather Forecast

Advertisements
Track Severe Weather on mobile